sensor_id;sensor_type;location;lat;lon;timestamp;pressure;altitude;pressure_sealevel;temperature;humidity
58367;BME280;57745;42.524;12.052;2022-07-03T00:01:38;96984.84;;;28.74;35.01
58367;BME280;57745;42.524;12.052;2022-07-03T00:04:04;96975.94;;;28.75;34.89
58367;BME280;57745;42.524;12.052;2022-07-03T00:06:31;96983.56;;;28.75;35.25
58367;BME280;57745;42.524;12.052;2022-07-03T00:08:58;96981.53;;;28.75;35.13
58367;BME280;57745;42.524;12.052;2022-07-03T00:11:24;96978.97;;;28.77;35.08
58367;BME280;57745;42.524;12.052;2022-07-03T00:13:50;96980.03;;;28.74;35.30
58367;BME280;57745;42.524;12.052;2022-07-03T00:16:16;96975.41;;;28.77;35.30
58367;BME280;57745;42.524;12.052;2022-07-03T00:18:42;96980.25;;;28.76;35.38
58367;BME280;57745;42.524;12.052;2022-07-03T00:21:09;96982.50;;;28.78;35.16
58367;BME280;57745;42.524;12.052;2022-07-03T00:23:40;96987.59;;;28.79;35.53
58367;BME280;57745;42.524;12.052;2022-07-03T00:26:07;96982.00;;;28.79;35.33
58367;BME280;57745;42.524;12.052;2022-07-03T00:28:33;96984.53;;;28.77;35.72
58367;BME280;57745;42.524;12.052;2022-07-03T00:30:59;96981.09;;;28.71;36.08
58367;BME280;57745;42.524;12.052;2022-07-03T00:33:27;96984.31;;;28.75;36.03
58367;BME280;57745;42.524;12.052;2022-07-03T00:35:55;96989.91;;;28.75;36.30
58367;BME280;57745;42.524;12.052;2022-07-03T00:38:22;96987.88;;;28.76;36.08
58367;BME280;57745;42.524;12.052;2022-07-03T00:40:48;96992.41;;;28.79;36.04
58367;BME280;57745;42.524;12.052;2022-07-03T00:43:15;96991.41;;;28.76;36.42
58367;BME280;57745;42.524;12.052;2022-07-03T00:45:46;96998.28;;;28.75;36.80
58367;BME280;57745;42.524;12.052;2022-07-03T00:48:13;96998.81;;;28.74;36.45
58367;BME280;57745;42.524;12.052;2022-07-03T00:50:45;96990.56;;;28.68;37.27
58367;BME280;57745;42.524;12.052;2022-07-03T00:53:12;96995.25;;;28.73;36.47
58367;BME280;57745;42.524;12.052;2022-07-03T00:55:39;96989.69;;;28.73;36.45
58367;BME280;57745;42.524;12.052;2022-07-03T00:58:07;96983.56;;;28.75;36.54
58367;BME280;57745;42.524;12.052;2022-07-03T01:00:35;96975.19;;;28.75;36.63
58367;BME280;57745;42.524;12.052;2022-07-03T01:03:13;96974.91;;;28.78;36.18
58367;BME280;57745;42.524;12.052;2022-07-03T01:05:45;96981.00;;;28.77;36.71
58367;BME280;57745;42.524;12.052;2022-07-03T01:19:39;96983.66;;;28.69;37.13
58367;BME280;57745;42.524;12.052;2022-07-03T01:22:44;96972.72;;;28.71;37.12
58367;BME280;57745;42.524;12.052;2022-07-03T01:30:12;96981.09;;;28.71;37.32
58367;BME280;57745;42.524;12.052;2022-07-03T01:32:42;96966.47;;;28.52;37.73
58367;BME280;57745;42.524;12.052;2022-07-03T01:35:12;96974.34;;;28.67;37.35
58367;BME280;57745;42.524;12.052;2022-07-03T01:37:40;96969.50;;;28.67;37.14
58367;BME280;57745;42.524;12.052;2022-07-03T01:40:06;96968.53;;;28.65;37.38
58367;BME280;57745;42.524;12.052;2022-07-03T01:42:35;96959.59;;;28.53;37.49
58367;BME280;57745;42.524;12.052;2022-07-03T01:45:05;96973.59;;;28.66;37.01
58367;BME280;57745;42.524;12.052;2022-07-03T01:47:31;96966.50;;;28.65;37.34
58367;BME280;57745;42.524;12.052;2022-07-03T01:49:58;96965.84;;;28.72;36.59
58367;BME280;57745;42.524;12.052;2022-07-03T01:52:27;96963.81;;;28.73;36.33
58367;BME280;57745;42.524;12.052;2022-07-03T01:54:59;96962.84;;;28.70;36.85
58367;BME280;57745;42.524;12.052;2022-07-03T01:57:36;96956.50;;;28.70;36.42
58367;BME280;57745;42.524;12.052;2022-07-03T02:00:03;96955.97;;;28.71;36.54
58367;BME280;57745;42.524;12.052;2022-07-03T02:02:32;96957.78;;;28.69;36.63
58367;BME280;57745;42.524;12.052;2022-07-03T02:05:03;96953.72;;;28.70;36.55
58367;BME280;57745;42.524;12.052;2022-07-03T02:08:17;96951.25;;;28.66;36.65
58367;BME280;57745;42.524;12.052;2022-07-03T02:11:02;96958.75;;;28.58;37.09
58367;BME280;57745;42.524;12.052;2022-07-03T02:13:38;96966.28;;;28.63;37.27
58367;BME280;57745;42.524;12.052;2022-07-03T02:16:07;96954.56;;;28.65;36.97
58367;BME280;57745;42.524;12.052;2022-07-03T02:18:36;96962.84;;;28.70;36.89
58367;BME280;57745;42.524;12.052;2022-07-03T02:23:38;96969.47;;;28.54;37.28
58367;BME280;57745;42.524;12.052;2022-07-03T02:26:07;96970.34;;;28.62;37.46
58367;BME280;57745;42.524;12.052;2022-07-03T02:31:07;96973.59;;;28.66;36.74
58367;BME280;57745;42.524;12.052;2022-07-03T02:33:37;96967.44;;;28.54;37.17
58367;BME280;57745;42.524;12.052;2022-07-03T02:36:05;96960.38;;;28.67;36.72
58367;BME280;57745;42.524;12.052;2022-07-03T02:38:31;96960.47;;;28.61;37.17
58367;BME280;57745;42.524;12.052;2022-07-03T02:41:03;96965.75;;;28.65;36.84
58367;BME280;57745;42.524;12.052;2022-07-03T02:46:24;96959.63;;;28.66;36.75
58367;BME280;57745;42.524;12.052;2022-07-03T02:49:58;96972.06;;;28.65;36.59
58367;BME280;57745;42.524;12.052;2022-07-03T03:00:42;96961.97;;;28.62;36.45
58367;BME280;57745;42.524;12.052;2022-07-03T03:03:16;96958.34;;;28.67;36.57
58367;BME280;57745;42.524;12.052;2022-07-03T03:05:47;96961.44;;;28.64;36.43
58367;BME280;57745;42.524;12.052;2022-07-03T03:08:21;96954.03;;;28.66;36.74
58367;BME280;57745;42.524;12.052;2022-07-03T03:10:50;96957.91;;;28.63;36.64
58367;BME280;57745;42.524;12.052;2022-07-03T03:13:18;96952.75;;;28.67;36.54
58367;BME280;57745;42.524;12.052;2022-07-03T03:16:09;96957.59;;;28.67;36.61
58367;BME280;57745;42.524;12.052;2022-07-03T03:18:37;96951.78;;;28.65;36.93
58367;BME280;57745;42.524;12.052;2022-07-03T03:21:05;96946.75;;;28.63;36.56
58367;BME280;57745;42.524;12.052;2022-07-03T03:23:50;96948.47;;;28.66;36.61
58367;BME280;57745;42.524;12.052;2022-07-03T03:26:27;96935.56;;;28.63;36.35
58367;BME280;57745;42.524;12.052;2022-07-03T03:28:59;96943.72;;;28.61;36.57
58367;BME280;57745;42.524;12.052;2022-07-03T03:31:26;96948.00;;;28.49;37.09
58367;BME280;57745;42.524;12.052;2022-07-03T03:33:51;96943.28;;;28.57;36.97
58367;BME280;57745;42.524;12.052;2022-07-03T03:36:19;96941.69;;;28.62;36.51
58367;BME280;57745;42.524;12.052;2022-07-03T03:38:46;96940.94;;;28.61;36.67
58367;BME280;57745;42.524;12.052;2022-07-03T03:41:12;96936.41;;;28.58;36.71
58367;BME280;57745;42.524;12.052;2022-07-03T03:43:38;96941.47;;;28.59;36.46
58367;BME280;57745;42.524;12.052;2022-07-03T03:46:04;96949.31;;;28.61;36.75
58367;BME280;57745;42.524;12.052;2022-07-03T03:48:33;96941.59;;;28.54;37.04
58367;BME280;57745;42.524;12.052;2022-07-03T03:51:00;96942.94;;;28.34;37.14
58367;BME280;57745;42.524;12.052;2022-07-03T03:53:27;96942.53;;;28.56;36.88
58367;BME280;57745;42.524;12.052;2022-07-03T03:56:06;96943.09;;;28.55;37.22
58367;BME280;57745;42.524;12.052;2022-07-03T03:58:37;96943.28;;;28.57;37.11
58367;BME280;57745;42.524;12.052;2022-07-03T04:01:05;96939.97;;;28.58;36.90
58367;BME280;57745;42.524;12.052;2022-07-03T04:03:32;96938.78;;;28.41;37.20
58367;BME280;57745;42.524;12.052;2022-07-03T04:05:58;96940.38;;;28.49;36.93
58367;BME280;57745;42.524;12.052;2022-07-03T04:08:25;96944.59;;;28.56;36.84
58367;BME280;57745;42.524;12.052;2022-07-03T04:10:51;96945.53;;;28.58;36.74
58367;BME280;57745;42.524;12.052;2022-07-03T04:13:17;96949.31;;;28.61;36.56
58367;BME280;57745;42.524;12.052;2022-07-03T04:15:45;96955.94;;;28.58;36.82
58367;BME280;57745;42.524;12.052;2022-07-03T04:18:10;96944.38;;;28.54;36.81
58367;BME280;57745;42.524;12.052;2022-07-03T04:20:36;96945.88;;;28.55;36.37
58367;BME280;57745;42.524;12.052;2022-07-03T04:23:01;96957.03;;;28.55;36.40
58367;BME280;57745;42.524;12.052;2022-07-03T04:25:27;96951.88;;;28.59;36.59
58367;BME280;57745;42.524;12.052;2022-07-03T04:27:53;96954.44;;;28.57;37.00
58367;BME280;57745;42.524;12.052;2022-07-03T04:30:19;96958.53;;;28.56;36.44
58367;BME280;57745;42.524;12.052;2022-07-03T04:32:44;96948.66;;;28.55;36.81
58367;BME280;57745;42.524;12.052;2022-07-03T04:35:10;96957.56;;;28.53;36.62
58367;BME280;57745;42.524;12.052;2022-07-03T04:37:36;96957.22;;;28.57;36.43
58367;BME280;57745;42.524;12.052;2022-07-03T04:40:02;96959.28;;;28.56;36.50
58367;BME280;57745;42.524;12.052;2022-07-03T04:42:27;96954.25;;;28.55;36.61
58367;BME280;57745;42.524;12.052;2022-07-03T04:44:53;96952.22;;;28.55;36.56
58367;BME280;57745;42.524;12.052;2022-07-03T04:47:19;96963.69;;;28.52;36.69
58367;BME280;57745;42.524;12.052;2022-07-03T04:49:46;96959.59;;;28.53;36.70
58367;BME280;57745;42.524;12.052;2022-07-03T04:52:11;96961.88;;;28.54;36.60
58367;BME280;57745;42.524;12.052;2022-07-03T04:54:37;96957.56;;;28.53;36.49
58367;BME280;57745;42.524;12.052;2022-07-03T04:57:03;96959.38;;;28.51;36.58
58367;BME280;57745;42.524;12.052;2022-07-03T04:59:28;96957.56;;;28.53;36.71
58367;BME280;57745;42.524;12.052;2022-07-03T05:01:54;96964.84;;;28.56;37.03
58367;BME280;57745;42.524;12.052;2022-07-03T05:04:19;96960.78;;;28.57;36.89
58367;BME280;57745;42.524;12.052;2022-07-03T05:06:45;96955.53;;;28.54;36.78
58367;BME280;57745;42.524;12.052;2022-07-03T05:09:11;96959.84;;;28.55;36.76
58367;BME280;57745;42.524;12.052;2022-07-03T05:11:36;96969.72;;;28.56;37.13
58367;BME280;57745;42.524;12.052;2022-07-03T05:14:03;96962.63;;;28.55;36.73
58367;BME280;57745;42.524;12.052;2022-07-03T05:16:29;96971.00;;;28.55;36.59
58367;BME280;57745;42.524;12.052;2022-07-03T05:18:54;96964.44;;;28.52;37.17
58367;BME280;57745;42.524;12.052;2022-07-03T05:21:19;96972.81;;;28.52;37.98
58367;BME280;57745;42.524;12.052;2022-07-03T05:23:45;96964.31;;;28.58;37.32
58367;BME280;57745;42.524;12.052;2022-07-03T05:26:10;96965.06;;;28.58;37.73
58367;BME280;57745;42.524;12.052;2022-07-03T05:28:36;96972.69;;;28.58;37.34
58367;BME280;57745;42.524;12.052;2022-07-03T05:31:01;96977.09;;;28.53;37.20
58367;BME280;57745;42.524;12.052;2022-07-03T05:33:27;96972.81;;;28.52;37.15
58367;BME280;57745;42.524;12.052;2022-07-03T05:35:55;96968.41;;;28.57;37.88
58367;BME280;57745;42.524;12.052;2022-07-03T05:38:20;96974.94;;;28.59;37.29
58367;BME280;57745;42.524;12.052;2022-07-03T05:41:04;96977.44;;;28.63;37.06
58367;BME280;57745;42.524;12.052;2022-07-03T05:43:29;96979.56;;;28.57;37.27
58367;BME280;57745;42.524;12.052;2022-07-03T05:45:55;96977.84;;;28.54;37.72
58367;BME280;57745;42.524;12.052;2022-07-03T05:48:20;96983.53;;;28.62;37.35
58367;BME280;57745;42.524;12.052;2022-07-03T05:50:46;96985.38;;;28.59;37.47
58367;BME280;57745;42.524;12.052;2022-07-03T05:53:11;96985.06;;;28.63;36.82
58367;BME280;57745;42.524;12.052;2022-07-03T05:55:37;96992.91;;;28.64;37.22
58367;BME280;57745;42.524;12.052;2022-07-03T05:58:02;96998.25;;;28.62;37.53
58367;BME280;57745;42.524;12.052;2022-07-03T06:00:28;96989.25;;;28.56;37.12
58367;BME280;57745;42.524;12.052;2022-07-03T06:02:54;96990.53;;;28.55;37.50
58367;BME280;57745;42.524;12.052;2022-07-03T06:05:19;96992.22;;;28.58;37.20
58367;BME280;57745;42.524;12.052;2022-07-03T06:07:45;96997.63;;;28.56;37.84
58367;BME280;57745;42.524;12.052;2022-07-03T06:10:10;96994.81;;;28.56;37.38
58367;BME280;57745;42.524;12.052;2022-07-03T06:12:36;96997.63;;;28.56;37.23
58367;BME280;57745;42.524;12.052;2022-07-03T06:15:01;96998.44;;;28.51;37.65
58367;BME280;57745;42.524;12.052;2022-07-03T06:17:27;97000.41;;;28.56;37.32
58367;BME280;57745;42.524;12.052;2022-07-03T06:19:52;96998.44;;;28.51;37.74
58367;BME280;57745;42.524;12.052;2022-07-03T06:22:18;96996.19;;;28.49;37.94
58367;BME280;57745;42.524;12.052;2022-07-03T06:24:43;96999.44;;;28.53;37.74
58367;BME280;57745;42.524;12.052;2022-07-03T06:27:08;97001.88;;;28.57;37.56
58367;BME280;57745;42.524;12.052;2022-07-03T06:29:34;96999.72;;;28.50;37.66
58367;BME280;57745;42.524;12.052;2022-07-03T06:31:59;97001.25;;;28.51;37.41
58367;BME280;57745;42.524;12.052;2022-07-03T06:34:25;97007.56;;;28.51;37.49
58367;BME280;57745;42.524;12.052;2022-07-03T06:36:52;97005.75;;;28.54;37.90
58367;BME280;57745;42.524;12.052;2022-07-03T06:39:17;97004.47;;;28.55;37.70
58367;BME280;57745;42.524;12.052;2022-07-03T06:41:43;97011.63;;;28.37;38.49
58367;BME280;57745;42.524;12.052;2022-07-03T06:44:08;97008.41;;;28.46;38.09
58367;BME280;57745;42.524;12.052;2022-07-03T06:46:34;97012.81;;;28.42;38.29
58367;BME280;57745;42.524;12.052;2022-07-03T06:48:59;97016.09;;;28.27;38.83
58367;BME280;57745;42.524;12.052;2022-07-03T06:51:25;97022.81;;;28.50;37.79
58367;BME280;57745;42.524;12.052;2022-07-03T06:53:50;97023.44;;;28.43;38.47
58367;BME280;57745;42.524;12.052;2022-07-03T06:56:16;97017.09;;;28.43;38.24
58367;BME280;57745;42.524;12.052;2022-07-03T06:58:41;97013.03;;;28.57;37.53
58367;BME280;57745;42.524;12.052;2022-07-03T07:01:07;97017.78;;;28.62;37.32
58367;BME280;57745;42.524;12.052;2022-07-03T07:03:32;97020.56;;;28.62;37.25
58367;BME280;57745;42.524;12.052;2022-07-03T07:05:57;97010.81;;;28.69;36.91
58367;BME280;57745;42.524;12.052;2022-07-03T07:08:23;97008.56;;;28.67;37.04
58367;BME280;57745;42.524;12.052;2022-07-03T07:10:48;97015.22;;;28.64;37.22
58367;BME280;57745;42.524;12.052;2022-07-03T07:13:14;97010.91;;;28.63;37.52
58367;BME280;57745;42.524;12.052;2022-07-03T07:15:39;97008.88;;;28.64;37.74
58367;BME280;57745;42.524;12.052;2022-07-03T07:18:05;97006.31;;;28.66;37.32
58367;BME280;57745;42.524;12.052;2022-07-03T07:20:30;97005.56;;;28.65;36.73
58367;BME280;57745;42.524;12.052;2022-07-03T07:22:56;97008.56;;;28.67;37.15
58367;BME280;57745;42.524;12.052;2022-07-03T07:25:21;96998.03;;;28.60;37.51
58367;BME280;57745;42.524;12.052;2022-07-03T07:27:46;97000.41;;;28.69;37.57
58367;BME280;57745;42.524;12.052;2022-07-03T07:30:13;97010.09;;;28.68;37.16
58367;BME280;57745;42.524;12.052;2022-07-03T07:32:38;97005.56;;;28.65;37.06
58367;BME280;57745;42.524;12.052;2022-07-03T07:35:05;97015.31;;;28.72;37.18
58367;BME280;57745;42.524;12.052;2022-07-03T07:37:31;97016.84;;;28.73;37.11
58367;BME280;57745;42.524;12.052;2022-07-03T07:39:56;97003.41;;;28.71;36.97
58367;BME280;57745;42.524;12.052;2022-07-03T07:42:21;97008.47;;;28.73;37.33
58367;BME280;57745;42.524;12.052;2022-07-03T07:44:49;97010.19;;;28.76;36.91
58367;BME280;57745;42.524;12.052;2022-07-03T07:47:15;97012.66;;;28.66;37.14
58367;BME280;57745;42.524;12.052;2022-07-03T07:49:41;97010.28;;;28.70;37.28
58367;BME280;57745;42.524;12.052;2022-07-03T07:52:06;97014.03;;;28.73;37.08
58367;BME280;57745;42.524;12.052;2022-07-03T07:54:32;97019.63;;;28.73;37.05
58367;BME280;57745;42.524;12.052;2022-07-03T07:56:58;97013.06;;;28.70;37.49
58367;BME280;57745;42.524;12.052;2022-07-03T07:59:23;97008.56;;;28.67;37.27
58367;BME280;57745;42.524;12.052;2022-07-03T08:01:49;97006.19;;;28.71;37.55
58367;BME280;57745;42.524;12.052;2022-07-03T08:04:33;97008.91;;;28.77;37.09
58367;BME280;57745;42.524;12.052;2022-07-03T08:07:17;97006.88;;;28.77;37.23
58367;BME280;57745;42.524;12.052;2022-07-03T08:09:42;97011.47;;;28.75;37.10
58367;BME280;57745;42.524;12.052;2022-07-03T08:12:08;97008.41;;;28.78;37.42
58367;BME280;57745;42.524;12.052;2022-07-03T08:14:33;97012.31;;;28.70;37.61
58367;BME280;57745;42.524;12.052;2022-07-03T08:16:59;97009.66;;;28.77;37.25
58367;BME280;57745;42.524;12.052;2022-07-03T08:19:25;97013.22;;;28.78;37.13
58367;BME280;57745;42.524;12.052;2022-07-03T08:21:50;97011.78;;;28.71;37.59
58367;BME280;57745;42.524;12.052;2022-07-03T08:24:15;97022.38;;;28.78;37.34
58367;BME280;57745;42.524;12.052;2022-07-03T08:26:41;97022.09;;;28.76;37.32
58367;BME280;57745;42.524;12.052;2022-07-03T08:29:13;97025.97;;;28.73;37.45
58367;BME280;57745;42.524;12.052;2022-07-03T08:31:39;97025.16;;;28.78;37.63
58367;BME280;57745;42.524;12.052;2022-07-03T08:34:04;97024.16;;;28.76;37.47
58367;BME280;57745;42.524;12.052;2022-07-03T08:36:30;97029.88;;;28.83;36.96
58367;BME280;57745;42.524;12.052;2022-07-03T08:38:55;97019.63;;;28.73;37.37
58367;BME280;57745;42.524;12.052;2022-07-03T08:41:22;97025.78;;;28.84;36.94
58367;BME280;57745;42.524;12.052;2022-07-03T08:43:50;97013.34;;;28.85;37.04
58367;BME280;57745;42.524;12.052;2022-07-03T08:46:17;97007.13;;;28.79;37.09
58367;BME280;57745;42.524;12.052;2022-07-03T08:48:44;97010.09;;;28.81;37.10
58367;BME280;57745;42.524;12.052;2022-07-03T08:51:11;97001.94;;;28.83;37.04
58367;BME280;57745;42.524;12.052;2022-07-03T08:53:37;96995.41;;;28.81;37.13
58367;BME280;57745;42.524;12.052;2022-07-03T08:56:03;97003.25;;;28.82;36.99
58367;BME280;57745;42.524;12.052;2022-07-03T08:58:30;97004.00;;;28.83;37.25
58367;BME280;57745;42.524;12.052;2022-07-03T09:00:56;96997.66;;;28.82;36.90
58367;BME280;57745;42.524;12.052;2022-07-03T09:03:24;97007.31;;;28.81;36.86
58367;BME280;57745;42.524;12.052;2022-07-03T09:05:50;97008.81;;;28.82;37.29
58367;BME280;57745;42.524;12.052;2022-07-03T09:08:16;96998.19;;;28.81;37.21
58367;BME280;57745;42.524;12.052;2022-07-03T09:10:44;96998.63;;;28.85;37.08
58367;BME280;57745;42.524;12.052;2022-07-03T09:13:11;96996.28;;;28.89;37.03
58367;BME280;57745;42.524;12.052;2022-07-03T09:15:36;96995.97;;;28.79;37.11
58367;BME280;57745;42.524;12.052;2022-07-03T09:18:04;96995.97;;;28.79;37.11
58367;BME280;57745;42.524;12.052;2022-07-03T09:20:32;97006.25;;;28.84;37.04
58367;BME280;57745;42.524;12.052;2022-07-03T09:23:18;97007.75;;;28.85;37.06
58367;BME280;57745;42.524;12.052;2022-07-03T09:25:54;97009.25;;;28.86;36.97
58367;BME280;57745;42.524;12.052;2022-07-03T09:28:21;97010.00;;;28.87;36.87
58367;BME280;57745;42.524;12.052;2022-07-03T09:31:00;97008.19;;;28.89;36.78
58367;BME280;57745;42.524;12.052;2022-07-03T09:33:26;97009.38;;;28.94;36.83
58367;BME280;57745;42.524;12.052;2022-07-03T09:35:55;96992.72;;;28.88;36.81
58367;BME280;57745;42.524;12.052;2022-07-03T09:38:21;96993.34;;;28.81;37.17
58367;BME280;57745;42.524;12.052;2022-07-03T09:40:52;96990.38;;;28.92;36.94
58367;BME280;57745;42.524;12.052;2022-07-03T09:43:25;96995.97;;;28.92;36.87
58367;BME280;57745;42.524;12.052;2022-07-03T09:45:55;96989.06;;;28.93;36.93
58367;BME280;57745;42.524;12.052;2022-07-03T09:51:19;96994.13;;;28.95;36.68
58367;BME280;57745;42.524;12.052;2022-07-03T09:53:57;96991.84;;;28.93;36.70
58367;BME280;57745;42.524;12.052;2022-07-03T09:56:34;96992.63;;;28.94;36.43
58367;BME280;57745;42.524;12.052;2022-07-03T09:59:14;96986.84;;;28.92;36.05
58367;BME280;57745;42.524;12.052;2022-07-03T10:01:44;96984.78;;;28.92;36.45
58367;BME280;57745;42.524;12.052;2022-07-03T10:04:15;96982.41;;;28.97;36.61
58367;BME280;57745;42.524;12.052;2022-07-03T10:07:00;96980.06;;;29.01;36.12
58367;BME280;57745;42.524;12.052;2022-07-03T10:09:31;96979.22;;;28.92;36.06
58367;BME280;57745;42.524;12.052;2022-07-03T10:11:58;96976.63;;;28.94;36.29
58367;BME280;57745;42.524;12.052;2022-07-03T10:14:25;96979.22;;;28.92;36.45
58367;BME280;57745;42.524;12.052;2022-07-03T10:16:51;96978.13;;;28.82;36.39
58367;BME280;57745;42.524;12.052;2022-07-03T10:19:20;96977.88;;;28.67;36.60
58367;BME280;57745;42.524;12.052;2022-07-03T10:21:54;96970.19;;;28.86;36.23
58367;BME280;57745;42.524;12.052;2022-07-03T10:24:25;96968.44;;;28.83;36.46
58367;BME280;57745;42.524;12.052;2022-07-03T10:26:52;96966.19;;;28.95;35.81
58367;BME280;57745;42.524;12.052;2022-07-03T10:29:20;96966.09;;;28.87;36.15
58367;BME280;57745;42.524;12.052;2022-07-03T10:31:46;96967.28;;;28.92;35.98
58367;BME280;57745;42.524;12.052;2022-07-03T10:34:16;96958.25;;;28.99;35.88
58367;BME280;57745;42.524;12.052;2022-07-03T10:36:43;96951.69;;;28.83;35.80
58367;BME280;57745;42.524;12.052;2022-07-03T10:39:18;96949.13;;;28.99;35.68
58367;BME280;57745;42.524;12.052;2022-07-03T10:41:47;96962.88;;;28.97;35.77
58367;BME280;57745;42.524;12.052;2022-07-03T10:44:34;96943.09;;;28.94;35.60
58367;BME280;57745;42.524;12.052;2022-07-03T10:47:46;96930.88;;;28.84;35.74
58367;BME280;57745;42.524;12.052;2022-07-03T10:50:21;96940.97;;;28.87;35.74
58367;BME280;57745;42.524;12.052;2022-07-03T10:52:48;96943.75;;;28.87;35.71
58367;BME280;57745;42.524;12.052;2022-07-03T10:55:15;96950.94;;;28.83;35.78
58367;BME280;57745;42.524;12.052;2022-07-03T10:58:13;96949.66;;;28.84;35.68
58367;BME280;57745;42.524;12.052;2022-07-03T11:00:54;96960.69;;;28.76;35.93
58367;BME280;57745;42.524;12.052;2022-07-03T11:06:06;96952.13;;;28.87;35.60
58367;BME280;57745;42.524;12.052;2022-07-03T11:08:31;96952.59;;;28.91;35.52
58367;BME280;57745;42.524;12.052;2022-07-03T11:10:56;96952.13;;;28.87;35.52
58367;BME280;57745;42.524;12.052;2022-07-03T11:14:18;96937.00;;;28.83;35.21
58367;BME280;57745;42.524;12.052;2022-07-03T11:16:45;96937.88;;;28.91;35.14
58367;BME280;57745;42.524;12.052;2022-07-03T11:19:11;96939.25;;;28.84;35.24
58367;BME280;57745;42.524;12.052;2022-07-03T11:21:41;96933.03;;;28.91;35.20
58367;BME280;57745;42.524;12.052;2022-07-03T11:24:35;96922.28;;;28.95;35.02
58367;BME280;57745;42.524;12.052;2022-07-03T11:27:20;96917.97;;;28.94;35.27
58367;BME280;57745;42.524;12.052;2022-07-03T11:30:03;96919.91;;;29.00;35.13
58367;BME280;57745;42.524;12.052;2022-07-03T11:32:46;96914.13;;;28.98;35.11
58367;BME280;57745;42.524;12.052;2022-07-03T11:35:45;96915.19;;;28.81;35.26
58367;BME280;57745;42.524;12.052;2022-07-03T11:38:14;96911.66;;;28.94;35.22
58367;BME280;57745;42.524;12.052;2022-07-03T11:40:41;96900.38;;;29.00;34.77
58367;BME280;57745;42.524;12.052;2022-07-03T11:43:08;96898.66;;;28.97;34.29
58367;BME280;57745;42.524;12.052;2022-07-03T11:45:37;96903.91;;;29.00;34.05
58367;BME280;57745;42.524;12.052;2022-07-03T11:48:15;96902.66;;;28.88;34.72
58367;BME280;57745;42.524;12.052;2022-07-03T11:50:46;96895.84;;;28.97;34.49
58367;BME280;57745;42.524;12.052;2022-07-03T11:53:32;96897.47;;;29.05;34.25
58367;BME280;57745;42.524;12.052;2022-07-03T11:56:04;96895.63;;;29.08;34.36
58367;BME280;57745;42.524;12.052;2022-07-03T11:58:50;96890.72;;;29.01;34.45
58367;BME280;57745;42.524;12.052;2022-07-03T12:04:20;96892.00;;;29.00;34.17
58367;BME280;57745;42.524;12.052;2022-07-03T12:06:50;96886.72;;;28.96;33.99
58367;BME280;57745;42.524;12.052;2022-07-03T12:09:30;96885.13;;;29.01;34.05
58367;BME280;57745;42.524;12.052;2022-07-03T12:14:45;96885.56;;;29.05;33.91
58367;BME280;57745;42.524;12.052;2022-07-03T12:17:20;96891.25;;;28.99;33.74
58367;BME280;57745;42.524;12.052;2022-07-03T12:19:49;96886.94;;;28.98;33.74
58367;BME280;57745;42.524;12.052;2022-07-03T12:25:01;96892.09;;;29.07;33.26
58367;BME280;57745;42.524;12.052;2022-07-03T12:27:35;96885.22;;;29.08;33.27
58367;BME280;57745;42.524;12.052;2022-07-03T12:30:01;96885.00;;;29.06;33.28
58367;BME280;57745;42.524;12.052;2022-07-03T12:32:28;96881.88;;;29.10;33.07
58367;BME280;57745;42.524;12.052;2022-07-03T12:34:53;96885.31;;;29.16;32.90
58367;BME280;57745;42.524;12.052;2022-07-03T12:37:36;96889.03;;;29.18;32.38
58367;BME280;57745;42.524;12.052;2022-07-03T12:40:05;96882.72;;;29.18;32.84
58367;BME280;57745;42.524;12.052;2022-07-03T12:42:31;96889.81;;;29.19;32.46
58367;BME280;57745;42.524;12.052;2022-07-03T12:45:01;96880.81;;;29.13;32.33
58367;BME280;57745;42.524;12.052;2022-07-03T12:47:29;96876.63;;;29.06;32.43
58367;BME280;57745;42.524;12.052;2022-07-03T12:49:59;96880.28;;;29.14;32.47
58367;BME280;57745;42.524;12.052;2022-07-03T12:52:34;96877.69;;;29.16;32.52
58367;BME280;57745;42.524;12.052;2022-07-03T12:55:01;96874.53;;;29.20;32.19
58367;BME280;57745;42.524;12.052;2022-07-03T12:57:27;96868.97;;;29.20;32.29
58367;BME280;57745;42.524;12.052;2022-07-03T13:00:17;96871.88;;;29.14;32.22
58367;BME280;57745;42.524;12.052;2022-07-03T13:02:45;96871.13;;;29.14;31.71
58367;BME280;57745;42.524;12.052;2022-07-03T13:05:22;96868.97;;;29.20;32.19
58367;BME280;57745;42.524;12.052;2022-07-03T13:07:50;96868.97;;;29.20;31.31
58367;BME280;57745;42.524;12.052;2022-07-03T13:10:18;96866.81;;;29.26;31.37
58367;BME280;57745;42.524;12.052;2022-07-03T13:12:55;96862.72;;;29.27;31.15
58367;BME280;57745;42.524;12.052;2022-07-03T13:15:28;96870.13;;;29.24;30.94
58367;BME280;57745;42.524;12.052;2022-07-03T13:20:27;96857.13;;;29.27;30.46
58367;BME280;57745;42.524;12.052;2022-07-03T13:23:01;96846.94;;;29.29;30.59
58367;BME280;57745;42.524;12.052;2022-07-03T13:25:28;96843.72;;;29.25;30.89
58367;BME280;57745;42.524;12.052;2022-07-03T13:28:07;96850.78;;;29.26;30.42
58367;BME280;57745;42.524;12.052;2022-07-03T13:30:34;96851.56;;;29.27;30.10
58367;BME280;57745;42.524;12.052;2022-07-03T13:33:00;96849.28;;;29.25;30.09
58367;BME280;57745;42.524;12.052;2022-07-03T13:35:26;96846.78;;;29.35;29.83
58367;BME280;57745;42.524;12.052;2022-07-03T13:37:52;96851.94;;;29.31;29.45
58367;BME280;57745;42.524;12.052;2022-07-03T13:40:17;96857.00;;;29.33;29.18
58367;BME280;57745;42.524;12.052;2022-07-03T13:42:44;96835.06;;;29.37;29.40
58367;BME280;57745;42.524;12.052;2022-07-03T13:45:10;96853.66;;;29.34;28.58
58367;BME280;57745;42.524;12.052;2022-07-03T13:47:36;96850.88;;;29.34;28.88
58367;BME280;57745;42.524;12.052;2022-07-03T13:50:02;96850.13;;;29.34;28.58
58367;BME280;57745;42.524;12.052;2022-07-03T13:52:31;96845.59;;;29.30;28.96